Time;durP1;ratioP1;P1;durP2;ratioP2;P2;SDS_P1;SDS_P2;PMS_P1;PMS_P2;Temp;Humidity;BMP_temperature;BMP_pressure;BME280_temperature;BME280_humidity;BME280_pressure;Samples;Min_cycle;Max_cycle;Signal;HPM_P1;HPM_P2
2023/09/05 00:01:54;;;;;;;5.28;4.22;;;18.30;69.40;;;;;;5027875;28;20378;-62
2023/09/05 00:04:20;;;;;;;4.32;3.92;;;18.30;69.30;;;;;;5037532;28;20078;-63
2023/09/05 00:06:46;;;;;;;4.40;4.00;;;18.30;69.40;;;;;;5032381;28;20453;-62
2023/09/05 00:09:13;;;;;;;5.40;4.10;;;18.20;69.40;;;;;;5035341;28;20035;-62
2023/09/05 00:11:39;;;;;;;4.82;4.22;;;18.20;69.50;;;;;;5031464;28;20255;-62
2023/09/05 00:14:05;;;;;;;5.75;3.70;;;18.10;69.40;;;;;;5031745;28;20041;-62
2023/09/05 00:16:30;;;;;;;3.75;3.45;;;18.10;69.50;;;;;;5029123;28;20057;-62
2023/09/05 00:18:56;;;;;;;5.45;3.58;;;18.10;69.60;;;;;;5026317;28;20100;-62
2023/09/05 00:21:22;;;;;;;4.75;4.18;;;18.00;69.50;;;;;;5027287;28;20042;-62
2023/09/05 00:23:47;;;;;;;4.60;3.88;;;18.00;69.60;;;;;;5031013;28;20551;-62
2023/09/05 00:26:13;;;;;;;5.43;4.03;;;18.00;69.70;;;;;;5025323;28;20443;-62
2023/09/05 00:28:43;;;;;;;4.80;3.85;;;17.90;69.70;;;;;;5024401;28;20041;-62
2023/09/05 00:31:11;;;;;;;5.15;3.40;;;17.90;69.80;;;;;;5030312;28;20116;-62
2023/09/05 00:33:37;;;;;;;3.85;3.47;;;17.90;70.70;;;;;;5025362;28;20057;-62
2023/09/05 00:36:04;;;;;;;3.83;3.53;;;17.90;70.00;;;;;;5030590;28;20040;-63
2023/09/05 00:38:29;;;;;;;4.32;3.55;;;17.80;70.00;;;;;;5027517;28;20049;-62
2023/09/05 00:40:55;;;;;;;3.78;3.47;;;17.80;70.00;;;;;;5031872;28;20206;-62
2023/09/05 00:43:21;;;;;;;4.00;3.58;;;17.80;70.10;;;;;;5029811;28;21031;-62
2023/09/05 00:45:55;;;;;;;6.88;3.50;;;17.80;70.20;;;;;;5031957;28;20086;-63
2023/09/05 00:48:27;;;;;;;4.85;3.42;;;17.70;70.20;;;;;;5027269;28;20037;-62
2023/09/05 00:50:58;;;;;;;4.15;3.60;;;17.70;70.20;;;;;;5026567;28;20084;-62
2023/09/05 00:53:25;;;;;;;3.85;3.55;;;17.70;70.20;;;;;;5028783;28;20033;-62
2023/09/05 00:55:52;;;;;;;4.15;3.65;;;17.70;70.20;;;;;;5028780;28;20045;-62
2023/09/05 00:58:18;;;;;;;3.92;3.58;;;17.70;70.30;;;;;;5030793;28;20504;-62
2023/09/05 01:00:44;;;;;;;3.58;3.25;;;17.60;70.20;;;;;;5024229;28;20519;-62
2023/09/05 01:03:09;;;;;;;4.00;3.70;;;17.60;70.30;;;;;;5023201;28;20064;-62
2023/09/05 01:05:37;;;;;;;4.13;3.40;;;17.60;70.30;;;;;;5029945;28;20098;-62
2023/09/05 01:08:16;;;;;;;4.15;3.60;;;17.60;70.40;;;;;;5029458;28;20048;-63
2023/09/05 01:10:58;;;;;;;4.25;3.83;;;17.60;70.70;;;;;;5030807;28;20574;-61
2023/09/05 01:13:25;;;;;;;4.43;3.50;;;17.60;70.50;;;;;;5030020;28;20037;-62
2023/09/05 01:15:51;;;;;;;3.60;3.28;;;17.60;70.40;;;;;;5027595;28;20228;-62
2023/09/05 01:18:17;;;;;;;3.70;3.33;;;17.50;70.30;;;;;;5033193;28;20033;-62
2023/09/05 01:21:15;;;;;;;3.90;3.50;;;17.50;70.30;;;;;;5025191;28;20598;-60
2023/09/05 01:23:47;;;;;;;4.60;3.50;;;17.50;70.90;;;;;;5027685;28;20037;-62
2023/09/05 01:26:13;;;;;;;3.90;3.50;;;17.50;70.40;;;;;;5028004;28;20676;-62
2023/09/05 01:28:43;;;;;;;3.55;3.25;;;17.50;70.40;;;;;;5025958;28;20396;-62
2023/09/05 01:31:12;;;;;;;4.85;3.35;;;17.40;70.60;;;;;;5032475;28;20424;-63
2023/09/05 01:33:39;;;;;;;4.03;3.60;;;17.40;70.50;;;;;;5031663;28;20171;-62
2023/09/05 01:36:06;;;;;;;4.05;3.40;;;17.40;71.40;;;;;;5027203;28;20037;-62
2023/09/05 01:38:35;;;;;;;3.45;3.15;;;17.40;70.50;;;;;;5024633;28;20040;-62
2023/09/05 01:41:01;;;;;;;4.07;3.08;;;17.40;70.50;;;;;;5030034;28;20087;-62
2023/09/05 01:43:26;;;;;;;3.58;3.28;;;17.40;70.60;;;;;;5027872;28;20034;-62
2023/09/05 01:45:52;;;;;;;4.05;3.38;;;17.40;70.60;;;;;;5030012;28;20041;-62
2023/09/05 01:48:18;;;;;;;3.83;3.22;;;17.30;70.60;;;;;;5030461;28;20087;-62
2023/09/05 01:50:43;;;;;;;3.55;3.25;;;17.30;70.60;;;;;;5023604;28;20328;-61
2023/09/05 01:53:09;;;;;;;3.78;3.35;;;17.30;71.00;;;;;;5030433;28;20312;-62
2023/09/05 01:55:35;;;;;;;4.80;3.17;;;17.30;70.70;;;;;;5026290;28;20041;-62
2023/09/05 01:58:00;;;;;;;3.35;3.00;;;17.20;70.70;;;;;;5031685;28;20041;-62
2023/09/05 02:00:26;;;;;;;3.83;3.42;;;17.20;70.80;;;;;;5024361;28;20133;-63
2023/09/05 02:02:51;;;;;;;5.30;3.35;;;17.10;70.70;;;;;;5027954;28;20272;-62
2023/09/05 02:05:17;;;;;;;4.32;3.50;;;17.20;70.90;;;;;;5029268;28;20033;-62
2023/09/05 02:07:43;;;;;;;4.93;2.92;;;17.10;70.90;;;;;;5031655;28;20404;-62
2023/09/05 02:10:09;;;;;;;3.65;3.25;;;17.10;71.00;;;;;;5026211;28;20078;-61
2023/09/05 02:12:35;;;;;;;3.58;3.10;;;17.10;71.10;;;;;;5030242;28;20028;-62
2023/09/05 02:15:02;;;;;;;3.65;3.17;;;17.10;71.20;;;;;;5038121;28;20488;-62
2023/09/05 02:17:31;;;;;;;3.53;3.08;;;17.00;71.20;;;;;;5031830;28;20026;-62
2023/09/05 02:19:59;;;;;;;3.72;3.42;;;17.00;71.20;;;;;;5031968;28;20030;-62
2023/09/05 02:22:25;;;;;;;3.58;3.20;;;17.00;71.30;;;;;;5028344;28;20218;-62
2023/09/05 02:24:51;;;;;;;4.15;3.08;;;16.90;71.30;;;;;;5031244;28;20567;-62
2023/09/05 02:27:16;;;;;;;3.63;3.20;;;16.90;71.30;;;;;;5029311;28;20033;-62
2023/09/05 02:29:42;;;;;;;3.42;3.13;;;16.90;71.40;;;;;;5032150;28;20040;-62
2023/09/05 02:32:07;;;;;;;3.00;2.70;;;16.90;71.50;;;;;;5032736;28;20033;-62
2023/09/05 02:34:33;;;;;;;3.30;3.00;;;16.80;71.50;;;;;;5033305;28;20041;-63
2023/09/05 02:36:59;;;;;;;4.95;3.08;;;16.80;71.50;;;;;;5030823;28;20120;-62
2023/09/05 02:39:25;;;;;;;3.47;3.17;;;16.80;71.60;;;;;;5029102;28;20217;-62
2023/09/05 02:41:50;;;;;;;3.85;3.33;;;16.80;71.80;;;;;;5035567;28;20901;-62
2023/09/05 02:44:16;;;;;;;3.95;3.50;;;16.80;71.80;;;;;;5034292;28;20068;-62
2023/09/05 02:46:41;;;;;;;3.30;3.00;;;16.80;71.80;;;;;;5034387;28;20120;-62
2023/09/05 02:49:07;;;;;;;3.92;3.47;;;16.80;71.90;;;;;;5033165;28;20052;-61
2023/09/05 02:51:33;;;;;;;3.80;3.35;;;16.70;72.00;;;;;;5028909;28;20493;-64
2023/09/05 02:54:00;;;;;;;3.13;2.83;;;16.70;72.00;;;;;;5029307;28;20210;-62
2023/09/05 02:56:25;;;;;;;5.82;3.13;;;16.70;72.10;;;;;;5029443;28;20034;-62
2023/09/05 02:58:51;;;;;;;3.40;3.10;;;16.70;72.10;;;;;;5028301;28;20094;-62
2023/09/05 03:01:17;;;;;;;3.83;3.22;;;16.60;72.10;;;;;;5027877;28;20508;-61
2023/09/05 03:03:43;;;;;;;3.25;2.95;;;16.60;72.20;;;;;;5032612;28;20128;-62
2023/09/05 03:06:14;;;;;;;3.17;2.88;;;16.60;72.20;;;;;;5033813;28;20029;-63
2023/09/05 03:08:42;;;;;;;3.85;3.22;;;16.60;72.50;;;;;;5031912;28;20890;-62
2023/09/05 03:11:08;;;;;;;3.45;2.90;;;16.60;72.30;;;;;;5029310;28;20040;-62
2023/09/05 03:13:34;;;;;;;3.38;3.08;;;16.60;72.40;;;;;;5032381;28;20033;-62
2023/09/05 03:15:59;;;;;;;3.75;3.30;;;16.50;72.30;;;;;;5033992;28;20091;-62
2023/09/05 03:18:25;;;;;;;3.55;3.03;;;16.50;72.60;;;;;;5034026;28;20045;-62
2023/09/05 03:20:51;;;;;;;3.25;2.95;;;16.50;72.60;;;;;;5032158;28;20472;-62
2023/09/05 03:23:16;;;;;;;3.97;3.30;;;16.50;72.80;;;;;;5031727;28;20029;-62
2023/09/05 03:25:42;;;;;;;4.40;3.33;;;16.40;72.80;;;;;;5030416;28;20443;-62
2023/09/05 03:28:14;;;;;;;3.53;3.22;;;16.40;73.00;;;;;;5033087;28;20232;-62
2023/09/05 03:30:41;;;;;;;3.88;3.13;;;16.40;73.20;;;;;;5029820;28;20483;-62
2023/09/05 03:33:07;;;;;;;4.35;3.38;;;16.40;73.20;;;;;;5027926;28;20036;-62
2023/09/05 03:35:33;;;;;;;3.50;3.00;;;16.40;73.20;;;;;;5027916;28;20041;-62
2023/09/05 03:37:59;;;;;;;3.60;3.10;;;16.40;73.30;;;;;;5027578;28;20041;-62
2023/09/05 03:40:25;;;;;;;4.45;3.10;;;16.40;73.30;;;;;;5027208;28;20098;-61
2023/09/05 03:42:51;;;;;;;3.15;2.95;;;16.30;73.30;;;;;;5029547;28;20044;-62
2023/09/05 03:45:18;;;;;;;3.50;3.20;;;16.30;73.50;;;;;;5028640;28;20029;-62
2023/09/05 03:47:43;;;;;;;3.33;3.03;;;16.30;73.70;;;;;;5031839;28;20052;-62
2023/09/05 03:50:09;;;;;;;4.28;2.97;;;16.20;73.40;;;;;;5028522;28;20034;-62
2023/09/05 03:52:34;;;;;;;4.13;2.92;;;16.30;73.70;;;;;;5029657;28;20033;-63
2023/09/05 03:55:00;;;;;;;3.50;3.20;;;16.20;73.70;;;;;;5029406;28;20041;-63
2023/09/05 03:57:27;;;;;;;3.28;2.92;;;16.20;74.00;;;;;;5026647;28;20496;-62
2023/09/05 03:59:52;;;;;;;3.10;2.80;;;16.10;74.00;;;;;;5032178;28;20049;-62
2023/09/05 04:02:18;;;;;;;3.72;3.00;;;16.10;74.10;;;;;;5032161;28;20037;-62
2023/09/05 04:04:43;;;;;;;3.90;2.90;;;16.10;74.20;;;;;;5032485;28;20082;-64
2023/09/05 04:07:09;;;;;;;4.32;3.15;;;16.10;74.40;;;;;;5029123;28;20098;-62
2023/09/05 04:09:35;;;;;;;2.97;2.67;;;16.10;74.40;;;;;;5028509;28;20045;-62
2023/09/05 04:12:00;;;;;;;3.78;3.28;;;16.10;74.30;;;;;;5024292;28;20091;-62
2023/09/05 04:14:26;;;;;;;7.03;3.70;;;16.10;74.40;;;;;;5030744;28;20049;-62
2023/09/05 04:16:52;;;;;;;5.88;3.28;;;16.10;74.40;;;;;;5024933;28;20260;-62
2023/09/05 04:19:17;;;;;;;6.00;3.00;;;16.10;74.40;;;;;;5028492;28;20037;-62
2023/09/05 04:21:43;;;;;;;4.35;3.70;;;16.10;74.50;;;;;;5023594;28;20623;-62
2023/09/05 04:24:08;;;;;;;3.45;2.90;;;16.10;74.60;;;;;;5027547;28;20493;-62
2023/09/05 04:26:34;;;;;;;3.90;3.20;;;16.00;74.60;;;;;;5034815;28;20455;-64
2023/09/05 04:29:00;;;;;;;3.13;2.90;;;16.00;74.70;;;;;;5032080;28;20488;-62
2023/09/05 04:31:26;;;;;;;3.60;3.10;;;16.00;74.70;;;;;;5033072;28;20033;-62
2023/09/05 04:33:53;;;;;;;3.55;3.25;;;16.00;74.90;;;;;;5036025;28;20416;-63
2023/09/05 04:36:19;;;;;;;3.00;2.80;;;16.00;74.90;;;;;;5035362;28;20504;-63
2023/09/05 04:38:44;;;;;;;3.35;3.05;;;15.90;74.90;;;;;;5035267;28;20052;-64
2023/09/05 04:41:11;;;;;;;3.35;2.97;;;16.00;75.10;;;;;;5034810;28;20516;-64
2023/09/05 04:43:37;;;;;;;4.47;3.13;;;15.90;75.20;;;;;;5035791;28;20412;-64
2023/09/05 04:46:03;;;;;;;3.22;2.92;;;15.90;75.30;;;;;;5032893;28;20037;-64
2023/09/05 04:48:29;;;;;;;3.15;2.85;;;15.90;75.40;;;;;;5047119;28;20051;-64
2023/09/05 04:50:55;;;;;;;5.05;3.10;;;15.90;75.50;;;;;;5033673;28;20113;-64
2023/09/05 04:53:20;;;;;;;3.85;2.85;;;15.90;75.50;;;;;;5047449;28;20724;-64
2023/09/05 04:55:48;;;;;;;7.05;3.50;;;15.90;75.60;;;;;;5035128;28;20036;-63
2023/09/05 04:58:13;;;;;;;4.80;3.20;;;15.90;75.50;;;;;;5033680;28;20116;-64
2023/09/05 05:00:41;;;;;;;3.55;3.25;;;15.90;75.50;;;;;;5031693;28;20156;-63
2023/09/05 05:03:06;;;;;;;6.28;3.53;;;15.80;75.60;;;;;;5033634;28;20041;-64
2023/09/05 05:05:32;;;;;;;4.32;3.00;;;15.80;75.70;;;;;;5034122;28;20101;-64
2023/09/05 05:07:58;;;;;;;4.32;3.45;;;15.80;75.80;;;;;;5034630;28;20041;-64
2023/09/05 05:10:23;;;;;;;4.05;3.42;;;15.80;76.00;;;;;;5032854;28;20500;-63
2023/09/05 05:12:49;;;;;;;3.33;2.92;;;15.80;76.10;;;;;;5031186;28;20497;-63
2023/09/05 05:15:14;;;;;;;4.35;3.03;;;15.80;76.30;;;;;;5031642;28;20051;-64
2023/09/05 05:17:40;;;;;;;5.32;2.92;;;15.80;76.20;;;;;;5034847;28;20048;-63
2023/09/05 05:20:06;;;;;;;3.60;3.30;;;15.80;76.30;;;;;;5033816;28;20037;-64
2023/09/05 05:22:32;;;;;;;3.97;3.08;;;15.80;76.50;;;;;;5032872;28;20037;-64
2023/09/05 05:24:59;;;;;;;3.78;3.17;;;15.80;76.60;;;;;;5034794;28;20511;-64
2023/09/05 05:27:25;;;;;;;3.90;3.50;;;15.80;76.70;;;;;;5032727;28;20489;-64
2023/09/05 05:29:51;;;;;;;4.97;3.40;;;15.80;76.90;;;;;;5032461;28;20037;-64
2023/09/05 05:32:17;;;;;;;3.90;3.50;;;15.80;76.90;;;;;;5030868;28;20040;-64
2023/09/05 05:34:43;;;;;;;4.97;3.58;;;15.80;78.10;;;;;;5033968;28;20572;-64
2023/09/05 05:37:09;;;;;;;4.07;3.67;;;15.80;77.30;;;;;;5033574;28;20493;-64
2023/09/05 05:39:34;;;;;;;3.35;3.05;;;15.80;77.50;;;;;;5033620;28;20045;-64
2023/09/05 05:42:00;;;;;;;3.92;3.30;;;15.80;77.70;;;;;;5031439;28;20037;-64
2023/09/05 05:44:26;;;;;;;7.05;4.00;;;15.80;77.70;;;;;;5032865;28;20656;-64
2023/09/05 05:46:57;;;;;;;7.03;3.63;;;15.80;77.90;;;;;;5034329;28;20489;-64
2023/09/05 05:49:25;;;;;;;4.57;3.42;;;15.90;78.00;;;;;;5032504;28;20037;-64
2023/09/05 05:51:52;;;;;;;3.97;3.60;;;15.90;78.00;;;;;;5032693;28;20049;-63
2023/09/05 05:54:17;;;;;;;4.20;3.33;;;15.90;78.00;;;;;;5032659;28;20412;-64
2023/09/05 05:56:43;;;;;;;4.53;3.47;;;15.90;78.10;;;;;;5032849;28;20060;-64
2023/09/05 05:59:08;;;;;;;4.20;3.20;;;16.00;78.30;;;;;;5033581;28;20433;-64
2023/09/05 06:01:34;;;;;;;3.95;3.55;;;16.00;78.40;;;;;;5032153;28;20056;-65
2023/09/05 06:03:59;;;;;;;4.40;4.00;;;16.00;78.40;;;;;;5033763;28;20037;-64
2023/09/05 06:06:25;;;;;;;5.75;3.72;;;16.10;78.60;;;;;;5032144;28;20036;-64
2023/09/05 06:08:50;;;;;;;4.22;3.65;;;16.10;78.60;;;;;;5031610;28;20095;-63
2023/09/05 06:11:16;;;;;;;5.38;3.70;;;16.10;78.70;;;;;;5031047;28;20088;-64
2023/09/05 06:13:42;;;;;;;3.80;3.50;;;16.10;78.70;;;;;;5033718;28;20037;-64
2023/09/05 06:16:08;;;;;;;4.20;3.45;;;16.10;78.70;;;;;;5036165;28;20047;-63
2023/09/05 06:18:33;;;;;;;4.57;3.72;;;16.20;78.70;;;;;;5034698;28;20489;-64
2023/09/05 06:20:59;;;;;;;4.68;3.58;;;16.20;79.00;;;;;;5032427;28;20079;-64
2023/09/05 06:23:24;;;;;;;7.68;3.90;;;16.30;78.90;;;;;;5033869;28;20392;-64
2023/09/05 06:25:50;;;;;;;4.70;4.00;;;16.30;79.00;;;;;;5029550;28;20131;-64
2023/09/05 06:28:16;;;;;;;5.03;3.63;;;16.40;79.10;;;;;;5032926;28;20032;-64
2023/09/05 06:30:42;;;;;;;4.63;3.25;;;16.40;79.20;;;;;;5031293;28;20124;-64
2023/09/05 06:33:07;;;;;;;4.75;3.15;;;16.40;79.00;;;;;;5032689;28;20109;-63
2023/09/05 06:35:35;;;;;;;5.35;3.60;;;16.50;78.90;;;;;;5032478;28;20034;-64
2023/09/05 06:38:01;;;;;;;6.80;3.80;;;16.50;79.10;;;;;;5032940;28;20675;-64
2023/09/05 06:40:27;;;;;;;7.28;3.75;;;16.60;79.10;;;;;;5034620;28;20104;-64
2023/09/05 06:42:52;;;;;;;6.15;3.55;;;16.60;79.10;;;;;;5030672;28;20458;-63
2023/09/05 06:45:19;;;;;;;3.88;3.47;;;16.60;79.30;;;;;;5034265;28;20390;-64
2023/09/05 06:47:45;;;;;;;4.05;3.60;;;16.60;79.20;;;;;;5032255;28;20464;-63
2023/09/05 06:50:11;;;;;;;3.67;3.38;;;16.70;79.20;;;;;;5031873;28;20039;-64
2023/09/05 06:52:37;;;;;;;4.35;3.60;;;16.70;79.20;;;;;;5033454;28;20041;-64
2023/09/05 06:55:02;;;;;;;5.03;3.38;;;16.80;79.20;;;;;;5037162;28;20035;-63
2023/09/05 06:57:28;;;;;;;5.00;3.70;;;16.80;79.20;;;;;;5033791;28;20558;-63
2023/09/05 06:59:54;;;;;;;3.85;3.53;;;16.90;79.30;;;;;;5035716;28;20364;-64
2023/09/05 07:02:19;;;;;;;4.00;3.50;;;16.90;79.30;;;;;;5035569;28;20037;-64
2023/09/05 07:04:45;;;;;;;4.00;3.60;;;17.00;79.30;;;;;;5035739;28;20069;-64
2023/09/05 07:07:11;;;;;;;4.53;3.25;;;17.00;79.20;;;;;;5035528;28;20115;-63
2023/09/05 07:09:36;;;;;;;3.90;3.20;;;17.10;79.10;;;;;;5035912;28;20049;-63
2023/09/05 07:12:04;;;;;;;5.18;3.35;;;17.10;79.10;;;;;;5032020;28;20509;-64
2023/09/05 07:14:30;;;;;;;3.60;3.30;;;17.20;79.00;;;;;;5036172;28;20049;-64
2023/09/05 07:16:56;;;;;;;3.97;3.22;;;17.30;78.60;;;;;;5035590;28;20037;-64
2023/09/05 07:19:21;;;;;;;3.38;3.00;;;17.30;78.40;;;;;;5034690;28;20029;-62
2023/09/05 07:21:47;;;;;;;4.15;3.20;;;17.40;78.40;;;;;;5036628;28;20040;-64
2023/09/05 07:24:14;;;;;;;6.88;3.00;;;17.50;78.40;;;;;;5036574;28;20041;-64
2023/09/05 07:26:40;;;;;;;3.40;3.10;;;17.50;78.40;;;;;;5036501;28;20037;-62
2023/09/05 07:29:08;;;;;;;3.83;2.85;;;17.60;78.20;;;;;;5033857;28;20043;-64
2023/09/05 07:31:33;;;;;;;4.47;2.97;;;17.60;78.00;;;;;;5036077;28;20147;-64
2023/09/05 07:33:59;;;;;;;3.72;3.25;;;17.70;77.90;;;;;;5036835;28;20061;-63
2023/09/05 07:36:26;;;;;;;4.35;3.20;;;17.80;77.80;;;;;;5035048;28;20484;-64
2023/09/05 07:38:52;;;;;;;3.08;2.78;;;17.80;77.70;;;;;;5034455;28;20726;-62
2023/09/05 07:41:17;;;;;;;2.75;2.55;;;18.00;77.30;;;;;;5035556;28;20045;-64
2023/09/05 07:43:43;;;;;;;3.95;2.58;;;18.00;77.00;;;;;;5034798;28;20044;-62
2023/09/05 07:46:11;;;;;;;3.47;2.65;;;18.10;76.90;;;;;;5036385;28;20090;-64
2023/09/05 07:48:37;;;;;;;3.50;2.40;;;18.20;76.50;;;;;;5033171;28;20033;-64
2023/09/05 07:51:05;;;;;;;2.88;2.65;;;18.30;76.20;;;;;;5036635;28;20029;-64
2023/09/05 07:53:35;;;;;;;3.10;2.53;;;18.40;75.90;;;;;;5035579;28;20034;-64
2023/09/05 07:56:02;;;;;;;3.25;2.67;;;18.50;75.80;;;;;;5034389;28;20065;-64
2023/09/05 07:58:27;;;;;;;2.45;2.13;;;18.50;75.50;;;;;;5035436;28;20045;-64
2023/09/05 08:00:54;;;;;;;3.05;2.30;;;18.70;75.40;;;;;;5034695;28;20029;-64
2023/09/05 08:03:20;;;;;;;3.88;2.45;;;18.70;75.30;;;;;;5031337;28;20491;-64
2023/09/05 08:05:46;;;;;;;2.58;2.38;;;18.80;75.10;;;;;;5034413;28;20037;-62
2023/09/05 08:08:13;;;;;;;2.88;2.40;;;18.90;74.70;;;;;;5032980;28;20140;-64
2023/09/05 08:10:39;;;;;;;2.50;2.13;;;19.00;74.70;;;;;;5032331;28;20111;-64
2023/09/05 08:13:04;;;;;;;2.40;2.20;;;19.10;74.60;;;;;;5038290;28;20489;-64
2023/09/05 08:15:30;;;;;;;2.60;2.40;;;19.20;74.50;;;;;;5039843;28;20038;-63
2023/09/05 08:17:55;;;;;;;3.05;2.20;;;19.30;74.20;;;;;;5035381;28;20052;-64
2023/09/05 08:20:21;;;;;;;2.75;2.40;;;19.40;74.00;;;;;;5036627;28;20048;-64
2023/09/05 08:22:48;;;;;;;2.90;2.60;;;19.50;73.50;;;;;;5035259;28;20049;-66
2023/09/05 08:25:15;;;;;;;2.40;2.20;;;19.60;73.00;;;;;;5038044;28;20029;-64
2023/09/05 08:27:44;;;;;;;2.88;2.40;;;19.70;73.00;;;;;;5033924;28;20036;-64
2023/09/05 08:30:11;;;;;;;2.70;2.42;;;19.80;72.50;;;;;;5033662;28;20153;-64
2023/09/05 08:32:39;;;;;;;2.25;2.05;;;19.90;72.50;;;;;;5034617;28;20501;-63
2023/09/05 08:35:11;;;;;;;2.67;2.13;;;20.00;72.00;;;;;;5035424;28;20025;-63
2023/09/05 08:37:37;;;;;;;3.35;2.10;;;20.10;71.90;;;;;;5036138;28;20124;-63
2023/09/05 08:40:03;;;;;;;2.65;1.92;;;20.20;71.80;;;;;;5037467;28;20036;-63
2023/09/05 08:42:32;;;;;;;2.40;2.20;;;20.30;71.40;;;;;;5036360;28;20034;-64
2023/09/05 08:45:04;;;;;;;2.60;2.40;;;20.40;71.00;;;;;;5036890;28;20401;-64
2023/09/05 08:47:30;;;;;;;2.22;1.98;;;20.50;70.10;;;;;;5036926;28;20439;-63
2023/09/05 08:49:59;;;;;;;2.47;2.28;;;20.60;70.00;;;;;;5035893;28;20044;-63
2023/09/05 08:52:32;;;;;;;2.38;2.03;;;20.70;69.80;;;;;;5035822;28;20128;-63
2023/09/05 08:54:59;;;;;;;3.92;2.05;;;20.70;69.00;;;;;;5041935;28;20534;-64
2023/09/05 08:57:27;;;;;;;2.13;1.92;;;20.80;69.20;;;;;;5034948;28;20037;-63
2023/09/05 08:59:54;;;;;;;2.28;1.88;;;20.90;69.40;;;;;;5036157;28;20075;-63
2023/09/05 09:02:20;;;;;;;3.25;1.88;;;21.00;69.20;;;;;;5034513;28;20025;-63
2023/09/05 09:04:49;;;;;;;2.08;1.83;;;21.20;69.30;;;;;;5035207;28;20567;-62
2023/09/05 09:07:15;;;;;;;3.22;2.30;;;21.20;68.80;;;;;;5033409;28;20614;-63
2023/09/05 09:09:40;;;;;;;2.20;2.00;;;21.30;69.00;;;;;;5038406;28;20041;-64
2023/09/05 09:12:07;;;;;;;2.25;2.05;;;21.40;68.40;;;;;;5034835;28;20509;-65
2023/09/05 09:14:33;;;;;;;2.53;1.75;;;21.50;67.80;;;;;;5033913;28;20476;-64
2023/09/05 09:17:00;;;;;;;1.92;1.73;;;21.50;67.50;;;;;;5033767;28;20040;-63
2023/09/05 09:19:29;;;;;;;2.30;1.95;;;21.60;67.30;;;;;;5036817;28;20025;-64
2023/09/05 09:22:00;;;;;;;1.88;1.73;;;21.70;66.90;;;;;;5036311;28;20040;-64
2023/09/05 09:24:32;;;;;;;3.28;2.13;;;21.80;66.40;;;;;;5035941;28;20057;-63
2023/09/05 09:26:57;;;;;;;2.65;1.92;;;21.80;66.20;;;;;;5036149;28;20417;-64
2023/09/05 09:29:24;;;;;;;2.95;1.95;;;21.90;66.60;;;;;;5036212;28;20066;-64
2023/09/05 09:31:57;;;;;;;2.13;1.92;;;21.90;66.20;;;;;;5035015;28;20048;-64
2023/09/05 09:34:23;;;;;;;2.85;1.90;;;22.00;66.00;;;;;;5033594;28;20570;-64
2023/09/05 09:36:50;;;;;;;2.30;1.98;;;22.10;66.00;;;;;;5033768;28;20053;-64
2023/09/05 09:39:17;;;;;;;2.28;1.90;;;22.10;66.00;;;;;;5033342;28;20103;-65
2023/09/05 09:41:47;;;;;;;2.22;2.00;;;22.20;65.90;;;;;;5035817;28;20508;-64
2023/09/05 09:44:28;;;;;;;1.85;1.70;;;22.30;66.60;;;;;;5034754;28;20476;-64
2023/09/05 09:46:56;;;;;;;1.70;1.60;;;22.40;65.90;;;;;;5032045;28;20048;-64
2023/09/05 09:49:27;;;;;;;9.35;1.85;;;22.50;65.60;;;;;;5034995;28;20037;-64
2023/09/05 09:51:54;;;;;;;1.90;1.80;;;22.60;64.90;;;;;;5034917;28;20523;-64
2023/09/05 09:54:29;;;;;;;1.77;1.67;;;22.70;64.60;;;;;;5034547;28;20421;-64
2023/09/05 09:57:03;;;;;;;2.13;1.90;;;22.80;64.60;;;;;;5033410;28;20124;-64
2023/09/05 09:59:35;;;;;;;2.42;1.83;;;22.80;64.50;;;;;;5031272;28;20032;-64
2023/09/05 10:02:11;;;;;;;1.95;1.70;;;23.00;64.70;;;;;;5034542;28;20083;-64
2023/09/05 10:04:37;;;;;;;1.75;1.65;;;23.10;64.20;;;;;;5033947;28;20037;-64
2023/09/05 10:07:06;;;;;;;2.63;1.88;;;23.20;63.80;;;;;;5036048;28;20083;-64
2023/09/05 10:09:36;;;;;;;1.60;1.50;;;23.30;63.00;;;;;;5032170;28;20409;-64
2023/09/05 10:12:05;;;;;;;2.10;1.70;;;23.40;62.40;;;;;;5029927;28;20092;-64
2023/09/05 10:14:31;;;;;;;2.17;1.80;;;23.40;62.50;;;;;;5034747;28;20120;-64
2023/09/05 10:16:58;;;;;;;2.83;1.98;;;23.50;62.10;;;;;;5036793;28;20037;-64
2023/09/05 10:19:26;;;;;;;1.85;1.75;;;23.60;61.70;;;;;;5033863;28;20048;-64
2023/09/05 10:21:54;;;;;;;1.80;1.70;;;23.60;61.80;;;;;;5034197;28;20048;-62
2023/09/05 10:24:19;;;;;;;1.73;1.63;;;23.70;61.60;;;;;;5034041;28;20040;-64
2023/09/05 10:26:47;;;;;;;1.80;1.70;;;23.80;61.70;;;;;;5033774;28;20041;-64
2023/09/05 10:29:44;;;;;;;1.70;1.60;;;23.80;61.40;;;;;;5036533;28;20056;-64
2023/09/05 10:32:18;;;;;;;1.80;1.70;;;23.90;61.10;;;;;;5038716;28;20091;-64
2023/09/05 10:34:47;;;;;;;1.67;1.58;;;24.00;61.10;;;;;;5038665;28;20044;-64
2023/09/05 10:37:18;;;;;;;1.70;1.60;;;24.00;61.00;;;;;;5037604;28;20098;-64
2023/09/05 10:39:52;;;;;;;1.98;1.35;;;24.10;60.10;;;;;;5039717;28;20052;-64
2023/09/05 10:42:26;;;;;;;2.72;1.63;;;24.10;60.00;;;;;;5037519;28;20029;-65
2023/09/05 10:44:52;;;;;;;1.70;1.45;;;24.20;60.30;;;;;;5035677;28;20110;-64
2023/09/05 10:47:29;;;;;;;1.60;1.50;;;24.20;60.50;;;;;;5038113;28;20455;-64
2023/09/05 10:50:08;;;;;;;1.55;1.38;;;24.30;59.70;;;;;;5036939;28;20053;-64
2023/09/05 10:52:34;;;;;;;1.48;1.38;;;24.40;59.40;;;;;;5037397;28;20044;-65
2023/09/05 10:55:32;;;;;;;1.83;1.38;;;24.40;59.80;;;;;;5036417;28;20037;-64
2023/09/05 10:57:58;;;;;;;1.60;1.40;;;24.50;59.10;;;;;;5036493;28;20384;-64
2023/09/05 11:00:28;;;;;;;1.45;1.15;;;24.60;59.30;;;;;;5037976;28;20033;-64
2023/09/05 11:02:55;;;;;;;1.70;1.08;;;24.60;59.10;;;;;;5035647;28;20033;-65
2023/09/05 11:05:23;;;;;;;1.52;1.30;;;24.70;58.80;;;;;;5037383;28;20044;-65
2023/09/05 11:07:50;;;;;;;1.67;1.50;;;24.70;58.90;;;;;;5036815;28;20037;-64
2023/09/05 11:10:30;;;;;;;1.75;1.50;;;24.80;58.60;;;;;;5037258;28;20033;-64
2023/09/05 11:13:06;;;;;;;2.75;1.45;;;24.90;58.90;;;;;;5035131;28;20113;-64
2023/09/05 11:15:35;;;;;;;1.80;1.40;;;24.90;59.30;;;;;;5038855;28;20052;-65
2023/09/05 11:18:04;;;;;;;1.90;1.50;;;25.00;59.00;;;;;;5033492;28;20061;-64
2023/09/05 11:20:39;;;;;;;1.55;1.20;;;25.00;58.80;;;;;;5037262;28;20067;-65
2023/09/05 11:23:11;;;;;;;1.85;1.38;;;25.10;58.00;;;;;;5037967;28;20057;-64
2023/09/05 11:25:42;;;;;;;1.35;1.25;;;25.20;58.00;;;;;;5036530;28;20029;-64
2023/09/05 11:28:08;;;;;;;1.65;1.10;;;25.20;58.00;;;;;;5036009;28;20040;-65
2023/09/05 11:30:41;;;;;;;1.60;1.50;;;25.30;58.00;;;;;;5036723;28;20415;-65
2023/09/05 11:33:15;;;;;;;2.70;1.48;;;25.40;57.60;;;;;;5035831;28;20043;-65
2023/09/05 11:35:41;;;;;;;2.55;1.45;;;25.40;57.90;;;;;;5037814;28;20103;-64
2023/09/05 11:38:11;;;;;;;1.65;1.10;;;25.50;57.70;;;;;;5035331;28;20468;-64
2023/09/05 11:40:38;;;;;;;1.40;1.30;;;25.50;57.50;;;;;;5035474;28;20049;-63
2023/09/05 11:43:10;;;;;;;1.40;1.30;;;25.60;57.70;;;;;;5035311;28;20873;-64
2023/09/05 11:45:37;;;;;;;3.40;1.05;;;25.60;57.00;;;;;;5035488;28;20040;-64
2023/09/05 11:48:06;;;;;;;1.95;1.40;;;25.70;57.60;;;;;;5036796;28;20551;-64
2023/09/05 11:50:32;;;;;;;1.15;1.10;;;25.80;57.70;;;;;;5034133;28;20505;-65
2023/09/05 11:53:03;;;;;;;1.63;1.17;;;25.80;57.20;;;;;;5037466;28;20140;-65
2023/09/05 11:55:30;;;;;;;1.27;1.17;;;25.90;56.50;;;;;;5037754;28;20044;-64
2023/09/05 11:57:57;;;;;;;4.07;1.23;;;26.00;56.80;;;;;;5034733;28;20519;-65
2023/09/05 12:00:24;;;;;;;1.40;1.30;;;26.00;56.50;;;;;;5034297;28;20159;-65
2023/09/05 12:02:54;;;;;;;1.20;1.10;;;26.10;56.80;;;;;;5036439;28;20040;-64
2023/09/05 12:05:20;;;;;;;1.30;1.20;;;26.10;56.30;;;;;;5035813;28;20029;-64
2023/09/05 12:07:52;;;;;;;2.30;1.00;;;26.20;56.30;;;;;;5036654;28;20414;-65
2023/09/05 12:10:18;;;;;;;1.23;1.13;;;26.20;55.50;;;;;;5035803;28;20053;-65
2023/09/05 12:12:54;;;;;;;1.23;1.13;;;26.30;56.20;;;;;;5032215;28;20033;-65
2023/09/05 12:15:33;;;;;;;1.35;1.20;;;26.30;55.70;;;;;;5036314;28;20633;-65
2023/09/05 12:18:00;;;;;;;1.63;1.20;;;26.30;55.70;;;;;;5038047;28;20571;-65
2023/09/05 12:20:26;;;;;;;2.33;1.20;;;26.40;55.60;;;;;;5038186;28;20036;-63
2023/09/05 12:22:52;;;;;;;1.08;1.05;;;26.40;55.40;;;;;;5037840;28;20033;-65
2023/09/05 12:25:21;;;;;;;1.33;1.15;;;26.40;55.50;;;;;;5038807;28;20040;-65
2023/09/05 12:27:48;;;;;;;0.95;0.90;;;26.40;55.30;;;;;;5034020;28;20030;-65
2023/09/05 12:30:30;;;;;;;1.30;1.20;;;26.40;55.30;;;;;;5036008;28;20083;-65
2023/09/05 12:33:04;;;;;;;1.77;1.23;;;26.50;55.40;;;;;;5037712;28;20056;-64
2023/09/05 12:35:31;;;;;;;;;;;26.50;55.30;;;;;;5036583;28;20038;-65
2023/09/05 12:37:59;;;;;;;1.55;1.10;;;26.50;56.10;;;;;;5036174;28;19924;-65
2023/09/05 12:40:25;;;;;;;1.00;0.90;;;26.50;55.10;;;;;;5035888;28;20107;-64
2023/09/05 12:42:51;;;;;;;1.20;1.00;;;26.60;55.00;;;;;;5037190;28;20029;-65
2023/09/05 12:45:18;;;;;;;1.40;1.30;;;26.60;55.00;;;;;;5038833;28;20452;-65
2023/09/05 12:47:49;;;;;;;1.90;1.15;;;26.60;54.60;;;;;;5035280;28;20033;-64
2023/09/05 12:50:15;;;;;;;1.52;1.00;;;26.60;54.60;;;;;;5035548;28;20037;-64